createdAt,value
2022-09-16T00:00:46.878Z,100290.06
2022-09-16T00:03:15.742Z,100298.94
2022-09-16T00:05:47.667Z,100297.34
2022-09-16T00:08:14.561Z,100294.91
2022-09-16T00:10:41.260Z,100294.91
2022-09-16T00:13:07.549Z,100293.28
2022-09-16T00:15:33.835Z,100290.47
2022-09-16T00:18:00.142Z,100290.88
2022-09-16T00:20:26.542Z,100284.47
2022-09-16T00:22:52.980Z,100290.88
2022-09-16T00:25:19.321Z,100286.06
2022-09-16T00:27:48.520Z,100287.28
2022-09-16T00:30:15.365Z,100289.28
2022-09-16T00:32:41.667Z,100287.28
2022-09-16T00:35:08.060Z,100284.47
2022-09-16T00:37:34.762Z,100289.28
2022-09-16T00:40:01.249Z,100292.47
2022-09-16T00:42:27.620Z,100293.69
2022-09-16T00:45:06.002Z,100284.06
2022-09-16T00:47:41.788Z,100286.47
2022-09-16T00:50:12.500Z,100291.28
2022-09-16T00:52:41.107Z,100281.66
2022-09-16T00:55:09.275Z,100281.22
2022-09-16T00:57:36.682Z,100280.03
2022-09-16T01:00:05.300Z,100281.63
2022-09-16T01:18:15.193Z,100281.97
2022-09-16T01:21:02.884Z,100290.44
2022-09-16T01:24:07.689Z,100284.00
2022-09-16T01:27:04.842Z,100277.16
2022-09-16T01:30:06.732Z,100286.38
2022-09-16T01:32:53.423Z,100283.56
2022-09-16T01:35:41.882Z,100289.19
2022-09-16T01:38:20.266Z,100283.56
2022-09-16T01:40:54.222Z,100282.78
2022-09-16T01:43:43.242Z,100286.38
2022-09-16T01:46:12.607Z,100294.81
2022-09-16T01:48:53.776Z,100296.00
2022-09-16T01:51:48.018Z,100304.03
2022-09-16T01:54:21.693Z,100296.00
2022-09-16T01:56:58.224Z,100301.63
2022-09-16T01:59:48.691Z,100302.00
2022-09-16T02:02:31.393Z,100301.63
2022-09-16T02:05:00.990Z,100297.22
2022-09-16T02:07:33.420Z,100301.63
2022-09-16T02:10:07.952Z,100294.03
2022-09-16T02:12:40.984Z,100285.56
2022-09-16T02:15:11.326Z,100277.94
2022-09-16T02:17:44.577Z,100276.75
2022-09-16T02:20:17.267Z,100286.78
2022-09-16T02:22:46.454Z,100285.19
2022-09-16T02:25:15.648Z,100287.59
2022-09-16T02:27:44.454Z,100277.94
2022-09-16T02:30:16.647Z,100274.75
2022-09-16T02:32:50.412Z,100275.13
2022-09-16T02:35:21.331Z,100275.13
2022-09-16T02:37:58.182Z,100275.94
2022-09-16T02:40:30.322Z,100277.56
2022-09-16T02:42:58.245Z,100277.16
2022-09-16T02:45:33.929Z,100281.97
2022-09-16T02:48:09.426Z,100272.31
2022-09-16T02:50:50.945Z,100262.69
2022-09-16T02:53:26.281Z,100264.69
2022-09-16T02:56:02.058Z,100272.72
2022-09-16T02:58:29.614Z,100269.91
2022-09-16T03:00:58.194Z,100263.47
2022-09-16T03:03:24.433Z,100272.34
2022-09-16T03:06:06.077Z,100268.72
2022-09-16T03:08:34.251Z,100269.53
2022-09-16T03:11:14.224Z,100271.91
2022-09-16T03:14:18.663Z,100266.28
2022-09-16T03:17:06.498Z,100258.66
2022-09-16T03:20:02.551Z,100259.84
2022-09-16T03:22:34.963Z,100254.66
2022-09-16T03:25:26.143Z,100248.22
2022-09-16T03:28:00.725Z,100248.22
2022-09-16T03:30:29.158Z,100252.63
2022-09-16T03:33:05.677Z,100245.00
2022-09-16T03:35:40.169Z,100250.22
2022-09-16T03:38:08.240Z,100246.19
2022-09-16T03:40:36.146Z,100242.97
2022-09-16T03:43:11.724Z,100244.19
2022-09-16T03:45:38.258Z,100244.22
2022-09-16T03:48:04.577Z,100246.59
2022-09-16T03:50:30.869Z,100241.38
2022-09-16T03:52:57.173Z,100249.81
2022-09-16T03:55:23.468Z,100251.41
2022-09-16T03:57:49.765Z,100247.41
2022-09-16T04:00:16.129Z,100248.22
2022-09-16T04:02:42.486Z,100255.41
2022-09-16T04:05:09.407Z,100242.19
2022-09-16T04:07:35.760Z,100242.56
2022-09-16T04:10:02.220Z,100247.38
2022-09-16T04:12:29.146Z,100237.75
2022-09-16T04:14:55.527Z,100245.38
2022-09-16T04:17:22.016Z,100249.41
2022-09-16T04:19:48.320Z,100240.16
2022-09-16T04:22:14.644Z,100238.53
2022-09-16T04:24:41.087Z,100234.94
2022-09-16T04:27:07.364Z,100238.94
2022-09-16T04:29:33.699Z,100238.94
2022-09-16T04:31:59.990Z,100239.75
2022-09-16T04:34:26.766Z,100241.75
2022-09-16T04:36:53.056Z,100241.75
2022-09-16T04:39:19.479Z,100242.16
2022-09-16T04:41:45.788Z,100235.31
2022-09-16T04:44:12.107Z,100238.53
2022-09-16T04:46:38.464Z,100239.75
2022-09-16T04:49:04.895Z,100238.53
2022-09-16T04:51:32.182Z,100242.56
2022-09-16T04:53:59.963Z,100247.34
2022-09-16T04:56:31.619Z,100248.16
2022-09-16T04:59:00.465Z,100242.94
2022-09-16T05:01:29.391Z,100232.50
2022-09-16T05:03:59.071Z,100239.72
2022-09-16T05:06:28.434Z,100236.91
2022-09-16T05:08:56.499Z,100240.09
2022-09-16T05:11:26.048Z,100236.91
2022-09-16T05:13:52.895Z,100238.50
2022-09-16T05:16:21.953Z,100245.72
2022-09-16T05:18:50.534Z,100248.13
2022-09-16T05:21:19.193Z,100240.88
2022-09-16T05:23:47.091Z,100250.13
2022-09-16T05:26:19.647Z,100247.31
2022-09-16T05:28:46.290Z,100241.25
2022-09-16T05:31:15.665Z,100249.69
2022-09-16T05:33:44.629Z,100242.84
2022-09-16T05:36:16.479Z,100247.66
2022-09-16T05:38:59.041Z,100249.69
2022-09-16T05:41:29.861Z,100249.28
2022-09-16T05:43:59.258Z,100242.84
2022-09-16T05:46:25.737Z,100250.50
2022-09-16T05:48:52.157Z,100248.09
2022-09-16T05:51:20.920Z,100241.25
2022-09-16T05:53:48.811Z,100250.13
2022-09-16T05:56:17.909Z,100259.34
2022-09-16T05:58:45.154Z,100259.75
2022-09-16T06:01:14.921Z,100261.34
2022-09-16T06:03:42.872Z,100267.34
2022-09-16T06:06:25.884Z,100268.53
2022-09-16T06:08:54.072Z,100268.50
2022-09-16T06:11:20.539Z,100271.28
2022-09-16T06:13:47.092Z,100272.81
2022-09-16T06:16:16.360Z,100257.97
2022-09-16T06:18:42.683Z,100255.09
2022-09-16T06:21:11.579Z,100259.47
2022-09-16T06:23:39.623Z,100261.84
2022-09-16T06:26:08.996Z,100258.16
2022-09-16T06:28:35.955Z,100266.16
2022-09-16T06:31:17.248Z,100263.69
2022-09-16T06:33:44.501Z,100257.63
2022-09-16T06:36:17.643Z,100261.59
2022-09-16T06:38:45.472Z,100260.81
2022-09-16T06:41:13.469Z,100263.19
2022-09-16T06:43:40.429Z,100265.19
2022-09-16T06:46:18.991Z,100270.38
2022-09-16T06:48:50.996Z,100259.16
2022-09-16T06:51:22.797Z,100257.59
2022-09-16T06:53:50.757Z,100268.84
2022-09-16T06:56:19.906Z,100270.06
2022-09-16T06:58:50.166Z,100267.69
2022-09-16T07:01:19.062Z,100272.94
2022-09-16T07:03:48.236Z,100275.38
2022-09-16T07:06:15.807Z,100270.22
2022-09-16T07:08:42.678Z,100269.44
2022-09-16T07:11:12.264Z,100275.91
2022-09-16T07:13:39.569Z,100277.56
2022-09-16T07:16:13.616Z,100280.78
2022-09-16T07:18:41.231Z,100280.44
2022-09-16T07:21:09.329Z,100276.44
2022-09-16T07:23:37.731Z,100276.91
2022-09-16T07:26:10.389Z,100278.53
2022-09-16T07:28:37.893Z,100272.56
2022-09-16T07:31:09.395Z,100278.59
2022-09-16T07:33:38.412Z,100277.84
2022-09-16T07:36:06.320Z,100281.06
2022-09-16T07:38:33.005Z,100281.13
2022-09-16T07:41:13.943Z,100278.28
2022-09-16T07:43:42.207Z,100272.72
2022-09-16T07:46:10.723Z,100280.31
2022-09-16T07:48:37.542Z,100280.34
2022-09-16T07:51:07.821Z,100280.75
2022-09-16T07:53:35.104Z,100276.75
2022-09-16T07:56:10.225Z,100280.38
2022-09-16T07:58:38.111Z,100280.38
2022-09-16T08:01:05.725Z,100281.56
2022-09-16T08:03:36.767Z,100296.09
2022-09-16T08:06:05.902Z,100286.84
2022-09-16T08:08:32.692Z,100287.28
2022-09-16T08:11:00.637Z,100286.88
2022-09-16T08:13:30.053Z,100286.03
2022-09-16T08:16:01.541Z,100283.25
2022-09-16T08:18:28.243Z,100289.66
2022-09-16T08:20:54.565Z,100287.22
2022-09-16T08:23:20.885Z,100290.03
2022-09-16T08:25:47.278Z,100293.66
2022-09-16T08:28:15.455Z,100296.06
2022-09-16T08:30:42.926Z,100296.84
2022-09-16T08:33:10.122Z,100298.44
2022-09-16T08:35:36.758Z,100300.84
2022-09-16T08:38:03.140Z,100291.97
2022-09-16T08:40:34.302Z,100297.97
2022-09-16T08:43:21.543Z,100302.78
2022-09-16T08:46:17.194Z,100312.00
2022-09-16T08:48:47.838Z,100308.75
2022-09-16T08:51:19.762Z,100302.69
2022-09-16T08:53:54.372Z,100301.03
2022-09-16T08:56:24.919Z,100302.63
2022-09-16T08:58:55.267Z,100305.41
2022-09-16T09:01:35.057Z,100309.03
2022-09-16T09:04:02.845Z,100309.00
2022-09-16T09:06:53.709Z,100306.13
2022-09-16T09:09:45.038Z,100306.53
2022-09-16T09:12:41.317Z,100309.72
2022-09-16T09:15:14.810Z,100302.78
2022-09-16T09:17:56.287Z,100300.75
2022-09-16T09:20:41.480Z,100302.31
2022-09-16T09:23:26.551Z,100307.13
2022-09-16T09:26:03.842Z,100299.00
2022-09-16T09:29:12.066Z,100290.50
2022-09-16T09:31:39.498Z,100300.06
2022-09-16T09:34:34.917Z,100292.38
2022-09-16T09:37:09.109Z,100291.03
2022-09-16T09:39:45.371Z,100289.75
2022-09-16T09:42:16.209Z,100287.63
2022-09-16T09:45:07.634Z,100284.34
2022-09-16T09:47:40.985Z,100280.59
2022-09-16T09:50:16.354Z,100284.16
2022-09-16T09:53:04.423Z,100271.72
2022-09-16T09:55:33.866Z,100274.06
2022-09-16T09:58:08.913Z,100276.47
2022-09-16T10:00:35.368Z,100284.03
2022-09-16T10:03:10.247Z,100276.44
2022-09-16T10:05:36.718Z,100281.66
2022-09-16T10:08:29.425Z,100283.78
2022-09-16T10:10:59.455Z,100282.56
2022-09-16T10:13:27.811Z,100273.38
2022-09-16T10:16:06.978Z,100283.97
2022-09-16T10:18:33.761Z,100288.88
2022-09-16T10:21:10.812Z,100282.56
2022-09-16T10:23:39.005Z,100278.59
2022-09-16T10:26:22.614Z,100271.41
2022-09-16T10:28:57.970Z,100264.16
2022-09-16T10:31:30.505Z,100271.81
2022-09-16T10:34:01.203Z,100270.13
2022-09-16T10:36:31.979Z,100273.72
2022-09-16T10:39:04.825Z,100266.38
2022-09-16T10:41:47.714Z,100259.06
2022-09-16T10:44:23.834Z,100259.38
2022-09-16T10:47:05.434Z,100262.53
2022-09-16T10:49:38.302Z,100279.44
2022-09-16T10:52:14.199Z,100306.53
2022-09-16T10:54:40.645Z,100331.66
2022-09-16T10:57:29.590Z,100330.22
2022-09-16T11:00:20.475Z,100356.25
2022-09-16T11:03:25.400Z,100350.44
2022-09-16T11:06:20.221Z,100338.56
2022-09-16T11:08:55.578Z,100324.19
2022-09-16T11:11:55.989Z,100320.22
2022-09-16T11:14:35.889Z,100320.22
2022-09-16T11:17:41.560Z,100301.75
2022-09-16T11:20:38.995Z,100308.56
2022-09-16T11:23:08.216Z,100307.38
2022-09-16T11:26:00.534Z,100304.94
2022-09-16T11:29:05.499Z,100297.72
2022-09-16T11:32:00.894Z,100298.53
2022-09-16T11:35:02.755Z,100288.06
2022-09-16T11:38:18.266Z,100299.34
2022-09-16T11:41:05.206Z,100300.94
2022-09-16T11:44:10.154Z,100300.94
2022-09-16T11:47:16.626Z,100300.09
2022-09-16T11:50:01.443Z,100302.13
2022-09-16T11:53:04.443Z,100301.31
2022-09-16T11:55:50.370Z,100308.94
2022-09-16T11:58:45.388Z,100311.38
2022-09-16T12:01:32.372Z,100299.72
2022-09-16T12:04:12.365Z,100292.50
2022-09-16T12:07:09.778Z,100283.25
2022-09-16T12:10:02.017Z,100287.25
2022-09-16T12:12:43.168Z,100290.06
2022-09-16T12:15:30.163Z,100292.91
2022-09-16T12:18:02.123Z,100289.28
2022-09-16T12:20:36.997Z,100296.09
2022-09-16T12:23:18.546Z,100309.38
2022-09-16T12:25:52.734Z,100306.94
2022-09-16T12:28:31.391Z,100310.97
2022-09-16T12:31:24.428Z,100312.56
2022-09-16T12:34:01.844Z,100309.78
2022-09-16T12:36:33.854Z,100316.56
2022-09-16T12:39:01.304Z,100316.53
2022-09-16T12:41:37.348Z,100306.09
2022-09-16T12:44:33.629Z,100310.88
2022-09-16T12:47:25.757Z,100308.91
2022-09-16T12:50:16.345Z,100302.91
2022-09-16T12:53:13.645Z,100306.53
2022-09-16T12:55:51.796Z,100306.53
2022-09-16T12:58:28.035Z,100298.53
2022-09-16T13:01:06.212Z,100298.91
2022-09-16T13:03:37.320Z,100287.63
2022-09-16T13:06:14.395Z,100288.03
2022-09-16T13:08:40.862Z,100283.59
2022-09-16T13:12:06.666Z,100282.75
2022-09-16T13:14:06.152Z,100279.94
2022-09-16T13:16:37.076Z,100281.16
2022-09-16T13:19:35.269Z,100274.75
2022-09-16T13:22:28.749Z,100280.38
2022-09-16T13:25:06.635Z,100280.44
2022-09-16T13:27:36.671Z,100274.41
2022-09-16T13:30:09.388Z,100283.28
2022-09-16T13:32:43.457Z,100276.03
2022-09-16T13:35:18.929Z,100268.38
2022-09-16T13:37:46.300Z,100275.19
2022-09-16T13:40:23.898Z,100267.16
2022-09-16T13:42:50.627Z,100270.78
2022-09-16T13:45:46.505Z,100269.13
2022-09-16T13:48:22.547Z,100262.28
2022-09-16T13:50:57.194Z,100269.13
2022-09-16T13:53:53.256Z,100275.56
2022-09-16T13:56:40.736Z,100277.97
2022-09-16T13:59:34.098Z,100277.97
2022-09-16T14:02:06.781Z,100281.19
2022-09-16T14:05:10.770Z,100279.56
2022-09-16T14:07:45.370Z,100282.38
2022-09-16T14:10:39.666Z,100282.78
2022-09-16T14:13:15.622Z,100278.34
2022-09-16T14:15:52.340Z,100281.63
2022-09-16T14:18:24.032Z,100275.97
2022-09-16T14:21:05.543Z,100277.59
2022-09-16T14:23:33.732Z,100286.47
2022-09-16T14:26:20.843Z,100278.44
2022-09-16T14:28:47.848Z,100285.66
2022-09-16T14:31:18.672Z,100272.38
2022-09-16T14:33:56.520Z,100277.22
2022-09-16T14:36:26.890Z,100263.13
2022-09-16T14:39:02.355Z,100267.16
2022-09-16T14:41:55.889Z,100262.72
2022-09-16T14:44:39.473Z,100260.31
2022-09-16T14:47:39.805Z,100257.88
2022-09-16T14:50:15.718Z,100255.06
2022-09-16T14:52:57.190Z,100252.63
2022-09-16T14:55:26.854Z,100257.44
2022-09-16T14:57:53.186Z,100253.44
2022-09-16T15:00:20.074Z,100250.59
2022-09-16T15:02:52.934Z,100248.16
2022-09-16T15:05:25.115Z,100253.38
2022-09-16T15:08:12.684Z,100248.94
2022-09-16T15:10:54.949Z,100249.72
2022-09-16T15:13:25.588Z,100251.72
2022-09-16T15:15:56.040Z,100252.47
2022-09-16T15:18:25.134Z,100241.19
2022-09-16T15:20:57.026Z,100248.41
2022-09-16T15:23:26.401Z,100239.94
2022-09-16T15:25:57.185Z,100241.56
2022-09-16T15:28:23.781Z,100242.34
2022-09-16T15:30:55.135Z,100235.91
2022-09-16T15:33:31.126Z,100240.75
2022-09-16T15:36:04.372Z,100235.06
2022-09-16T15:38:31.207Z,100237.06
2022-09-16T15:41:12.975Z,100244.34
2022-09-16T15:43:42.591Z,100241.13
2022-09-16T15:46:23.760Z,100241.16
2022-09-16T15:49:00.091Z,100241.19
2022-09-16T15:51:45.065Z,100242.41
2022-09-16T15:54:14.289Z,100242.03
2022-09-16T15:57:02.018Z,100234.81
2022-09-16T16:00:13.060Z,100236.41
2022-09-16T16:03:01.837Z,100233.59
2022-09-16T16:05:31.082Z,100243.66
2022-09-16T16:07:59.991Z,100244.06
2022-09-16T16:10:31.955Z,100235.19
2022-09-16T16:13:00.788Z,100229.19
2022-09-16T16:15:28.411Z,100236.47
2022-09-16T16:17:59.257Z,100238.06
2022-09-16T16:20:25.643Z,100244.53
2022-09-16T16:22:53.037Z,100245.34
2022-09-16T16:25:19.837Z,100255.03
2022-09-16T16:27:46.217Z,100252.63
2022-09-16T16:30:12.873Z,100243.34
2022-09-16T16:32:39.870Z,100251.03
2022-09-16T16:35:06.662Z,100241.75
2022-09-16T16:37:48.386Z,100251.03
2022-09-16T16:40:15.665Z,100264.69
2022-09-16T16:42:43.549Z,100261.50
2022-09-16T16:45:12.774Z,100265.09
2022-09-16T16:47:39.994Z,100266.75
2022-09-16T16:50:06.818Z,100261.09
2022-09-16T16:52:33.141Z,100269.56
2022-09-16T16:54:59.485Z,100256.69
2022-09-16T16:57:25.808Z,100265.16
2022-09-16T16:59:52.157Z,100257.50
2022-09-16T17:02:18.658Z,100265.56
2022-09-16T17:04:44.997Z,100265.97
2022-09-16T17:07:27.862Z,100263.94
2022-09-16T17:09:55.456Z,100265.56
2022-09-16T17:12:21.882Z,100278.84
2022-09-16T17:14:48.179Z,100280.84
2022-09-16T17:17:14.612Z,100280.03
2022-09-16T17:19:40.948Z,100275.59
2022-09-16T17:22:07.376Z,100272.00
2022-09-16T17:24:34.563Z,100267.19
2022-09-16T17:27:01.458Z,100274.00
2022-09-16T17:29:27.756Z,100280.78
2022-09-16T17:31:56.768Z,100273.97
2022-09-16T17:34:23.111Z,100284.00
2022-09-16T17:36:49.462Z,100287.19
2022-09-16T17:39:18.837Z,100289.97
2022-09-16T17:41:48.485Z,100290.75
2022-09-16T17:44:16.474Z,100301.22
2022-09-16T17:46:43.735Z,100295.97
2022-09-16T17:49:18.678Z,100299.56
2022-09-16T17:51:45.271Z,100293.53
2022-09-16T17:54:12.170Z,100299.16
2022-09-16T17:56:39.322Z,100300.34
2022-09-16T17:59:05.812Z,100296.28
2022-09-16T18:01:32.354Z,100291.88
2022-09-16T18:03:58.850Z,100304.72
2022-09-16T18:06:28.987Z,100306.69
2022-09-16T18:08:55.372Z,100311.91
2022-09-16T18:11:21.983Z,100306.28
2022-09-16T18:13:52.838Z,100309.84
2022-09-16T18:16:20.277Z,100312.25
2022-09-16T18:18:50.897Z,100315.03
2022-09-16T18:21:19.520Z,100319.06
2022-09-16T18:23:46.743Z,100309.03
2022-09-16T18:26:14.286Z,100314.25
2022-09-16T18:29:05.678Z,100315.03
2022-09-16T18:31:29.442Z,100311.00
2022-09-16T18:33:56.832Z,100302.53
2022-09-16T18:36:25.710Z,100314.56
2022-09-16T18:38:53.573Z,100313.34
2022-09-16T18:41:22.775Z,100311.72
2022-09-16T18:43:54.109Z,100317.75
2022-09-16T18:46:26.596Z,100319.72
2022-09-16T18:48:53.982Z,100318.91
2022-09-16T18:51:30.632Z,100320.91
2022-09-16T18:54:00.614Z,100315.28
2022-09-16T18:56:28.527Z,100317.28
2022-09-16T18:59:20.334Z,100318.88
2022-09-16T19:01:48.565Z,100324.91
2022-09-16T19:04:17.972Z,100317.28
2022-09-16T19:06:47.766Z,100320.50
2022-09-16T19:09:16.450Z,100328.50
2022-09-16T19:11:43.258Z,100324.53
2022-09-16T19:14:14.711Z,100320.13
2022-09-16T19:16:42.869Z,100328.53
2022-09-16T19:19:11.166Z,100338.16
2022-09-16T19:21:38.205Z,100345.78
2022-09-16T19:24:07.317Z,100336.56
2022-09-16T19:26:36.176Z,100352.22
2022-09-16T19:29:06.862Z,100344.59
2022-09-16T19:31:35.505Z,100350.19
2022-09-16T19:34:01.864Z,100340.59
2022-09-16T19:36:30.719Z,100343.41
2022-09-16T19:38:58.089Z,100351.84
2022-09-16T19:41:28.178Z,100346.22
2022-09-16T19:43:56.248Z,100344.22
2022-09-16T19:46:22.894Z,100339.41
2022-09-16T19:48:50.589Z,100334.22
2022-09-16T19:51:19.139Z,100328.97
2022-09-16T19:53:46.579Z,100339.44
2022-09-16T19:56:16.041Z,100333.47
2022-09-16T19:58:42.356Z,100338.25
2022-09-16T20:01:11.431Z,100340.25
2022-09-16T20:03:39.655Z,100345.88
2022-09-16T20:06:12.497Z,100347.53
2022-09-16T20:08:40.677Z,100344.72
2022-09-16T20:11:18.495Z,100352.31
2022-09-16T20:13:49.582Z,100349.94
2022-09-16T20:16:17.748Z,100354.34
2022-09-16T20:18:44.556Z,100349.94
2022-09-16T20:21:16.416Z,100357.50
2022-09-16T20:23:44.905Z,100354.31
2022-09-16T20:26:13.909Z,100361.50
2022-09-16T20:28:43.482Z,100361.09
2022-09-16T20:31:12.879Z,100360.28
2022-09-16T20:33:40.385Z,100369.53
2022-09-16T20:36:09.792Z,100373.09
2022-09-16T20:38:38.559Z,100363.47
2022-09-16T20:41:09.637Z,100360.25
2022-09-16T20:43:36.199Z,100365.47
2022-09-16T20:46:08.234Z,100367.09
2022-09-16T20:48:34.853Z,100365.88
2022-09-16T20:51:05.087Z,100364.66
2022-09-16T20:53:31.465Z,100365.84
2022-09-16T20:56:02.867Z,100373.88
2022-09-16T20:58:29.250Z,100366.66
2022-09-16T21:00:55.633Z,100365.00
2022-09-16T21:03:21.979Z,100368.63
2022-09-16T21:05:48.280Z,100361.78
2022-09-16T21:08:14.574Z,100363.38
2022-09-16T21:10:40.869Z,100374.97
2022-09-16T21:13:07.186Z,100366.16
2022-09-16T21:15:33.487Z,100380.56
2022-09-16T21:17:59.774Z,100381.75
2022-09-16T21:20:26.082Z,100382.16
2022-09-16T21:22:52.398Z,100390.56
2022-09-16T21:25:18.701Z,100382.53
2022-09-16T21:27:44.987Z,100392.56
2022-09-16T21:30:11.695Z,100393.78
2022-09-16T21:32:37.988Z,100398.59
2022-09-16T21:35:04.849Z,100400.59
2022-09-16T21:37:31.840Z,100403.41
2022-09-16T21:39:58.642Z,100403.75
2022-09-16T21:42:25.003Z,100403.34
2022-09-16T21:44:52.038Z,100405.72
2022-09-16T21:47:18.325Z,100408.53
2022-09-16T21:49:44.626Z,100408.94
2022-09-16T21:52:10.919Z,100407.31
2022-09-16T21:54:37.246Z,100401.28
2022-09-16T21:57:03.968Z,100404.47
2022-09-16T21:59:30.302Z,100406.06
2022-09-16T22:02:01.398Z,100399.22
2022-09-16T22:04:29.906Z,100406.78
2022-09-16T22:06:56.346Z,100405.59
2022-09-16T22:09:22.727Z,100407.97
2022-09-16T22:11:49.610Z,100419.16
2022-09-16T22:14:16.890Z,100425.13
2022-09-16T22:16:44.038Z,100423.94
2022-09-16T22:19:16.537Z,100429.53
2022-09-16T22:21:45.471Z,100419.50
2022-09-16T22:24:12.579Z,100423.13
2022-09-16T22:26:39.764Z,100423.50
2022-09-16T22:29:08.797Z,100428.31
2022-09-16T22:31:37.489Z,100417.44
2022-09-16T22:34:04.384Z,100426.66
2022-09-16T22:36:33.779Z,100425.00
2022-09-16T22:39:04.681Z,100437.81
2022-09-16T22:41:31.036Z,100430.16
2022-09-16T22:43:57.438Z,100422.13
2022-09-16T22:46:26.982Z,100429.69
2022-09-16T22:48:55.524Z,100426.47
2022-09-16T22:51:21.945Z,100414.38
2022-09-16T22:53:48.592Z,100411.91
2022-09-16T22:56:18.178Z,100413.06
2022-09-16T22:58:45.356Z,100416.63
2022-09-16T23:01:15.477Z,100416.16
2022-09-16T23:03:42.988Z,100413.75
2022-09-16T23:06:11.485Z,100412.91
2022-09-16T23:08:40.269Z,100405.25
2022-09-16T23:11:14.438Z,100417.22
2022-09-16T23:13:42.261Z,100403.97
2022-09-16T23:16:13.913Z,100406.72
2022-09-16T23:18:40.473Z,100404.31
2022-09-16T23:21:09.721Z,100413.47
2022-09-16T23:23:38.962Z,100407.47
2022-09-16T23:26:07.970Z,100417.41
2022-09-16T23:28:34.780Z,100406.59
2022-09-16T23:31:07.054Z,100408.16
2022-09-16T23:33:33.859Z,100403.34
2022-09-16T23:36:00.764Z,100398.16
2022-09-16T23:38:27.200Z,100415.34
2022-09-16T23:40:53.673Z,100410.13
2022-09-16T23:43:20.166Z,100424.13
2022-09-16T23:45:46.763Z,100423.31
2022-09-16T23:48:14.303Z,100407.31
2022-09-16T23:50:43.121Z,100413.75
2022-09-16T23:53:09.416Z,100408.50
2022-09-16T23:55:40.740Z,100410.06
2022-09-16T23:58:07.052Z,100405.28
